createdAt,value
2022-09-16T00:01:47.917Z,12.33
2022-09-16T00:06:56.124Z,12.36
2022-09-16T00:12:02.813Z,12.43
2022-09-16T00:17:10.256Z,12.52
2022-09-16T00:22:18.201Z,12.53
2022-09-16T00:27:25.076Z,12.55
2022-09-16T00:47:59.483Z,12.4
2022-09-16T00:53:07.547Z,12.33
2022-09-16T00:58:15.661Z,12.32
2022-09-16T01:03:24.353Z,12.28
2022-09-16T01:08:32.270Z,12.26
2022-09-16T01:13:40.474Z,12.22
2022-09-16T01:18:47.931Z,12.14
2022-09-16T01:23:56.115Z,12.04
2022-09-16T01:29:03.724Z,11.94
2022-09-16T01:34:12.110Z,11.84
2022-09-16T01:39:19.878Z,11.79
2022-09-16T01:44:28.059Z,11.79
2022-09-16T01:49:35.727Z,11.76
2022-09-16T01:54:42.983Z,11.72
2022-09-16T01:59:51.191Z,11.65
2022-09-16T02:04:58.550Z,11.57
2022-09-16T02:10:05.740Z,11.44
2022-09-16T02:15:13.663Z,11.3
2022-09-16T02:20:21.493Z,11.18
2022-09-16T02:25:29.206Z,11.06
2022-09-16T02:30:36.989Z,10.94
2022-09-16T02:35:44.376Z,10.84
2022-09-16T02:40:53.349Z,10.76
2022-09-16T02:45:59.954Z,10.76
2022-09-16T03:01:23.506Z,10.62
2022-09-16T03:06:30.702Z,10.53
2022-09-16T03:16:47.909Z,10.29
2022-09-16T03:37:19.321Z,10.19
2022-09-16T03:57:49.704Z,9.78
2022-09-16T06:36:56.023Z,12.3
2022-09-16T06:47:10.987Z,12.48
2022-09-16T06:52:18.883Z,12.55
2022-09-16T06:57:27.301Z,12.69
2022-09-16T07:07:44.811Z,13.59
2022-09-16T07:38:30.658Z,16.22
2022-09-16T07:43:39.137Z,17.42
2022-09-16T07:48:45.695Z,17.64
2022-09-16T07:53:53.867Z,17.57
2022-09-16T07:59:02.064Z,17.38
2022-09-16T08:04:08.626Z,17.02
2022-09-16T08:14:25.889Z,16.58
2022-09-16T08:19:34.581Z,16.47
2022-09-16T08:34:56.441Z,16.76
2022-09-16T08:40:05.251Z,16.93
2022-09-16T09:00:34.813Z,17.32
2022-09-16T09:05:43.162Z,17.44
2022-09-16T09:10:50.489Z,17.54
2022-09-16T09:15:58.500Z,17.75
2022-09-16T09:26:13.376Z,18.06
2022-09-16T09:31:20.576Z,18.04
2022-09-16T09:36:29.024Z,17.94
2022-09-16T09:41:37.588Z,17.83
2022-09-16T09:46:44.591Z,17.76
2022-09-16T09:51:53.471Z,17.78
2022-09-16T09:57:01.309Z,17.88
2022-09-16T10:02:09.490Z,17.96
2022-09-16T10:12:26.666Z,18.22
2022-09-16T10:22:42.177Z,18.97
2022-09-16T10:27:50.570Z,19.22
2022-09-16T10:32:59.025Z,19.22
2022-09-16T10:38:06.884Z,19.14
2022-09-16T10:43:15.229Z,19.02
2022-09-16T10:48:23.099Z,19.0
2022-09-16T10:58:38.240Z,18.9
2022-09-16T11:03:45.888Z,19.07
2022-09-16T11:14:00.649Z,19.92
2022-09-16T11:29:23.483Z,20.67
2022-09-16T11:34:32.462Z,20.82
2022-09-16T11:39:40.033Z,20.86
2022-09-16T11:44:47.608Z,20.83
2022-09-16T11:49:54.741Z,20.69
2022-09-16T11:55:02.114Z,20.65
2022-09-16T12:00:09.987Z,20.71
2022-09-16T12:15:32.389Z,20.84
2022-09-16T12:20:39.843Z,20.84
2022-09-16T12:25:47.189Z,20.76
2022-09-16T12:30:54.384Z,20.64
2022-09-16T12:36:01.606Z,20.46
2022-09-16T12:41:09.252Z,20.18
2022-09-16T12:46:17.335Z,19.83
2022-09-16T12:51:23.784Z,19.4
2022-09-16T12:56:31.629Z,19.02
2022-09-16T13:06:46.024Z,19.02
2022-09-16T13:17:09.153Z,20.38
2022-09-16T13:22:17.732Z,20.66
2022-09-16T13:27:24.990Z,20.68
2022-09-16T13:32:33.979Z,20.66
2022-09-16T13:37:41.377Z,20.58
2022-09-16T13:42:49.116Z,20.38
2022-09-16T13:47:57.613Z,20.15
2022-09-16T13:53:04.321Z,19.94
2022-09-16T13:58:10.875Z,19.83
2022-09-16T14:03:17.378Z,19.79
2022-09-16T14:13:34.561Z,19.65
2022-09-16T14:18:42.443Z,19.54
2022-09-16T14:23:49.370Z,19.32
2022-09-16T14:34:04.478Z,18.84
2022-09-16T14:41:11.342Z,18.49
2022-09-16T14:46:17.213Z,18.25
2022-09-16T14:51:25.560Z,18.03
2022-09-16T14:56:33.036Z,17.85
2022-09-16T15:01:40.794Z,17.66
2022-09-16T15:06:47.984Z,17.48
2022-09-16T15:11:55.885Z,17.38
2022-09-16T15:17:04.204Z,17.24
2022-09-16T15:22:13.492Z,17.12
2022-09-16T15:27:21.813Z,17.01
2022-09-16T15:32:28.461Z,16.92
2022-09-16T15:37:36.785Z,16.83
2022-09-16T15:42:45.505Z,16.76
2022-09-16T15:47:54.163Z,16.71
2022-09-16T15:53:01.056Z,16.62
2022-09-16T15:58:09.278Z,16.56
2022-09-16T16:03:16.852Z,16.44
2022-09-16T16:08:24.244Z,16.26
2022-09-16T16:13:32.305Z,15.94
2022-09-16T16:18:40.173Z,15.59
2022-09-16T16:23:48.535Z,15.26
2022-09-16T16:28:56.582Z,14.96
2022-09-16T16:34:03.143Z,14.75
2022-09-16T16:39:11.227Z,14.62
2022-09-16T16:44:18.819Z,14.54
2022-09-16T16:49:26.477Z,14.5
2022-09-16T16:54:34.399Z,14.46
2022-09-16T16:59:42.982Z,14.44
2022-09-16T17:04:50.195Z,14.39
2022-09-16T17:09:58.031Z,14.38
2022-09-16T17:15:21.621Z,14.32
2022-09-16T17:20:29.237Z,14.26
2022-09-16T17:25:36.901Z,14.21
2022-09-16T17:30:44.089Z,14.18
2022-09-16T17:35:51.963Z,14.17
2022-09-16T17:40:59.397Z,14.16
2022-09-16T17:46:07.031Z,14.15
2022-09-16T17:51:15.965Z,14.18
2022-09-16T17:56:23.941Z,14.19
2022-09-16T18:01:31.139Z,14.15
2022-09-16T18:06:38.900Z,14.16
2022-09-16T18:11:48.105Z,14.18
2022-09-16T18:16:56.466Z,14.15
2022-09-16T18:22:03.726Z,14.12
2022-09-16T18:27:12.265Z,14.09
2022-09-16T18:32:20.110Z,14.05
2022-09-16T18:37:27.970Z,13.98
2022-09-16T18:42:35.146Z,13.92
2022-09-16T18:47:42.342Z,13.86
2022-09-16T18:52:48.892Z,13.79
2022-09-16T19:01:00.534Z,13.62
2022-09-16T19:06:05.728Z,13.51
2022-09-16T19:11:13.934Z,13.42
2022-09-16T19:16:21.377Z,13.35
2022-09-16T19:21:29.506Z,13.25
2022-09-16T19:26:36.400Z,13.12
2022-09-16T19:31:44.002Z,12.99
2022-09-16T19:36:51.973Z,13.02
2022-09-16T19:41:59.657Z,12.98
2022-09-16T19:47:07.413Z,12.88
2022-09-16T19:52:15.170Z,12.86
2022-09-16T19:57:22.821Z,12.9
2022-09-16T20:02:30.023Z,12.85
2022-09-16T20:07:37.209Z,12.86
2022-09-16T20:12:44.347Z,12.8
2022-09-16T20:17:51.661Z,12.75
2022-09-16T20:23:00.508Z,12.65
2022-09-16T20:28:09.443Z,12.51
2022-09-16T20:38:25.717Z,12.24
2022-09-16T20:43:32.288Z,12.16
2022-09-16T20:48:40.577Z,12.12
2022-09-16T20:53:49.336Z,12.06
2022-09-16T20:58:56.906Z,11.99
2022-09-16T21:04:04.097Z,11.94
2022-09-16T21:09:11.293Z,11.88
2022-09-16T21:14:19.131Z,11.96
2022-09-16T21:24:36.656Z,12.2
2022-09-16T21:29:44.453Z,12.34
2022-09-16T21:34:52.937Z,12.44
2022-09-16T21:39:59.616Z,12.51
2022-09-16T21:45:07.203Z,12.52
2022-09-16T21:55:22.583Z,12.4
2022-09-16T22:05:37.589Z,12.04
2022-09-16T22:10:45.407Z,11.84
2022-09-16T22:15:53.157Z,11.66
2022-09-16T22:21:01.445Z,11.52
2022-09-16T22:26:09.184Z,11.39
2022-09-16T22:31:15.460Z,11.3
2022-09-16T22:36:23.297Z,11.18
2022-09-16T22:41:31.682Z,11.03
2022-09-16T22:46:39.941Z,10.85
2022-09-16T22:51:48.446Z,10.72
2022-09-16T22:56:56.803Z,10.6
2022-09-16T23:02:03.787Z,10.48
2022-09-16T23:07:10.979Z,10.36
2022-09-16T23:12:19.224Z,10.29
2022-09-16T23:17:27.128Z,10.26
2022-09-16T23:22:34.521Z,10.2
2022-09-16T23:27:44.209Z,10.16
2022-09-16T23:32:51.652Z,10.24
2022-09-16T23:37:59.139Z,10.34
2022-09-16T23:43:05.858Z,10.48
2022-09-16T23:48:14.089Z,10.58
2022-09-16T23:53:22.175Z,10.72
2022-09-16T23:58:29.881Z,10.78
